Nearby METAR Reports

 

KTEB - Teterboro, New Jersey, USA
Distance from station: ENE 2mi, 4km
Updated: 11/17/2019 1:51pm
Overcast
Overcast
 Wind from NE
Wind: NE 12 mph , 19 km/h
Temperature: 43°F , 6°C
Wind Chill: 37°F , 3°C
Dew Point: 36°F , 2°C
Humidity: 76%
Barometer: 30.23 inHg , 1023.7 hPa
Clouds: Overcast
Visibility: 10 miles , 16 km
Cloud details: Mostly cloudy 3100 ft
Overcast 4600 ft
2019/11/17 18:51 KTEB 171851Z 05010KT 10SM BKN031 OVC046 06/02 A3023 RMK AO2 SLP237 T00560022
KNYC - Nyc/Central Park, New York, USA
Distance from station: SE 8mi, 13km
Updated: 11/17/2019 1:51pm
Overcast
Overcast
 Wind from ENE
Wind: ENE 12 mph , 19 km/h, Gust: 25 mph , 41 km/h
Temperature: 41°F , 5°C
Wind Chill: 34°F , 1°C
Dew Point: 30°F , -1°C
Humidity: 66%
Barometer: 30.25 inHg , 1024.4 hPa
Clouds: Overcast
Visibility: 10 miles , 16 km
Cloud details: Few Clouds 2600 ft
Overcast 4500 ft
2019/11/17 18:51 KNYC 171851Z AUTO 06010G22KT 10SM FEW026 OVC045 05/M01 A3025 RMK AO2 SLP236 T00501011 $
 
KCDW - Caldwell, New Jersey, USA
Distance from station: WNW 10mi, 17km
Updated: 11/17/2019 1:53pm
Overcast
Overcast
 Wind from NE
Wind: NE 10 mph , 17 km/h
Temperature: 43°F , 6°C
Wind Chill: 37°F , 3°C
Dew Point: 25°F , -4°C
Humidity: 49%
Barometer: 30.24 inHg , 1024 hPa
Clouds: Overcast
Visibility: 10 miles , 16 km
Cloud details: Partly cloudy 3000 ft
Overcast 4300 ft
2019/11/17 18:53 KCDW 171853Z 05009KT 10SM SCT030 OVC043 06/M04 A3024 RMK AO2 SLP246 T00561039
KLGA - Nyc/La Guardia, New York, USA
Distance from station: ESE 12mi, 19km
Updated: 11/17/2019 1:51pm
Mostly cloudy
Mostly cloudy
 Wind from NE
Wind: NE 23 mph , 37 km/h, Gust: 32 mph , 52 km/h
Temperature: 43°F , 6°C
Wind Chill: 34°F , 1°C
Dew Point: 30°F , -1°C
Humidity: 61%
Barometer: 30.24 inHg , 1024 hPa
Clouds: Mostly cloudy
Visibility: 10 miles , 16 km
Cloud details: Few Clouds 3300 ft
Mostly cloudy 4600 ft
Mostly cloudy 5500 ft
Mostly cloudy 25000 ft
2019/11/17 18:51 KLGA 171851Z 05020G28KT 10SM FEW033 BKN046 BKN055 BKN250 06/M01 A3024 RMK AO2 PK WND 05028/1846 SLP238 T00611006
 
KEWR - Newark, New Jersey, USA
Distance from station: SSW 12mi, 20km
Updated: 11/17/2019 1:51pm
Overcast
Overcast
 Wind from NNE
Wind: NNE 17 mph , 28 km/h
Temperature: 43°F , 6°C
Wind Chill: 35°F , 2°C
Dew Point: 30°F , -1°C
Humidity: 61%
Barometer: 30.23 inHg , 1023.7 hPa
Clouds: Overcast
Visibility: 10 miles , 16 km
Cloud details: Mostly cloudy 3500 ft
Mostly cloudy 4000 ft
Overcast 15000 ft
2019/11/17 18:51 KEWR 171851Z 03015KT 10SM BKN035 BKN040 OVC150 06/M01 A3023 RMK AO2 SLP234 T00611011 $
KMMU - Morristown Muni, New Jersey, USA
Distance from station: WSW 18mi, 29km
Updated: 11/17/2019 1:45pm
Overcast
Overcast
 Wind from NE
Wind: NE 12 mph , 19 km/h, Gust: 21 mph , 33 km/h
Temperature: 41°F , 5°C
Wind Chill: 34°F , 1°C
Dew Point: 28°F , -2°C
Humidity: 61%
Barometer: 30.24 inHg , 1024 hPa
Clouds: Overcast
Visibility: 10 miles , 16 km
Cloud details: Partly cloudy 2900 ft
Mostly cloudy 3500 ft
Overcast 4100 ft
2019/11/17 18:45 KMMU 171845Z 04010G18KT 10SM SCT029 BKN035 OVC041 05/M02 A3024
 
KJFK - Nyc/Jfk Arpt, New York, USA
Distance from station: SE 23mi, 36km
Updated: 11/17/2019 1:51pm
Overcast
Overcast
 Wind from NNE
Wind: NNE 24 mph , 39 km/h, Gust: 31 mph , 50 km/h
Temperature: 43°F , 6°C
Wind Chill: 34°F , 1°C
Dew Point: 32°F , 0°C
Humidity: 66%
Barometer: 30.23 inHg , 1023.7 hPa
Clouds: Overcast
Visibility: 10 miles , 16 km
Cloud details: Few Clouds 3000 ft
Overcast 4500 ft
2019/11/17 18:51 KJFK 171851Z 03021G27KT 10SM FEW030 OVC045 06/00 A3023 RMK AO2 PK WND 03027/1851 SLP236 T00560000 $
KHPN - White Plains, New York, USA
Distance from station: NE 25mi, 40km
Updated: 11/17/2019 1:56pm
Mostly cloudy
Mostly cloudy
 Wind from NE
Wind: NE 14 mph , 22 km/h, Gust: 18 mph , 30 km/h
Temperature: 39°F , 4°C
Wind Chill: 31°F , -1°C
Dew Point: 25°F , -4°C
Humidity: 56%
Barometer: 30.23 inHg , 1023.7 hPa
Clouds: Mostly cloudy
Visibility: 10 miles , 16 km
Cloud details: Partly cloudy 2400 ft
Mostly cloudy 3200 ft
2019/11/17 18:56 KHPN 171856Z 05012G16KT 10SM SCT024 BKN032 04/M04 A3023 RMK AO2 SLP243 T00441039 $
 
KSMQ - Somerville, New Jersey, USA
Distance from station: WSW 34mi, 55km
Updated: 11/17/2019 1:53pm
Overcast
Overcast
 Wind from NE
Wind: NE 10 mph , 17 km/h
Temperature: 43°F , 6°C
Wind Chill: 37°F , 3°C
Dew Point: 27°F , -3°C
Humidity: 53%
Barometer: 30.20 inHg , 1022.7 hPa
Clouds: Overcast
Visibility: 10 miles , 16 km
Cloud details: Mostly cloudy 3700 ft
Overcast 4400 ft
2019/11/17 18:53 KSMQ 171853Z AUTO 04009KT 10SM BKN037 OVC044 06/M03 A3020 RMK AO2 SLP230 T00561033 $
K12N - Andover, New Jersey, USA
Distance from station: WNW 36mi, 57km
Updated: 11/17/2019 1:54pm

 Wind from NNE
Wind: NNE 9 mph , 15 km/h, Gust: 16 mph , 26 km/h
Temperature: 37°F , 3°C
Wind Chill: 30°F , -1°C
Dew Point: 23°F , -5°C
Humidity: 56%
Barometer: 30.23 inHg , 1023.7 hPa
2019/11/17 18:54 K12N 171854Z AUTO 03008G14KT 03/M05 A3023 RMK AO1 SLP247 T00281050
 
KFRG - Farmingdale, New York, USA
Distance from station: ESE 36mi, 58km
Updated: 11/17/2019 1:53pm
Overcast
Overcast
 Wind from NE
Wind: NE 18 mph , 30 km/h, Gust: 26 mph , 43 km/h
Temperature: 39°F , 4°C
Wind Chill: 30°F , -1°C
Dew Point: 28°F , -2°C
Humidity: 65%
Barometer: 30.22 inHg , 1023.4 hPa
Clouds: Overcast
Visibility: 10 miles , 16 km
Cloud details: Mostly cloudy 2100 ft
Overcast 2600 ft
2019/11/17 18:53 KFRG 171853Z 04016G23KT 10SM BKN021 OVC026 04/M02 A3022 RMK AO2 SLP234 T00441017
KFWN - Sussex, New Jersey, USA
Distance from station: NW 37mi, 60km
Updated: 11/17/2019 1:53pm
Overcast
Overcast
 Wind from NNE
Wind: NNE 13 mph , 20 km/h
Temperature: 37°F , 3°C
Wind Chill: 29°F , -2°C
Dew Point: 19°F , -7°C
Humidity: 48%
Barometer: 30.24 inHg , 1024 hPa
Clouds: Overcast
Visibility: 10 miles , 16 km
Cloud details: Overcast 4500 ft
2019/11/17 18:53 KFWN 171853Z AUTO 03011KT 10SM OVC045 03/M07 A3024 RMK AO2 SLP245 T00281067
 
KSWF - Newburgh/Stewart, New York, USA
Distance from station: 0 45mi, 72km
Updated: 11/17/2019 1:45pm
Mostly cloudy
Mostly cloudy
 Wind from NE
Wind: NE 12 mph , 19 km/h, Gust: 21 mph , 33 km/h
Temperature: 37°F , 3°C
Wind Chill: 29°F , -2°C
Dew Point: 23°F , -5°C
Humidity: 56%
Barometer: 30.28 inHg , 1025.4 hPa
Clouds: Mostly cloudy
Visibility: 20 miles , 32 km
Cloud details: Mostly cloudy 8000 ft
2019/11/17 18:45 KSWF 171845Z 05010G18KT 20SM BKN080 03/M05 A3028
KMGJ - Montgomery, New York, USA
Distance from station: NNW 47mi, 75km
Updated: 11/17/2019 1:54pm
Overcast
Overcast
 Wind from NNE
Wind: NNE 12 mph , 19 km/h
Temperature: 37°F , 3°C
Wind Chill: 29°F , -2°C
Dew Point: 19°F , -7°C
Humidity: 48%
Barometer: 30.26 inHg , 1024.7 hPa
Clouds: Overcast
Visibility: 10 miles , 16 km
Cloud details: Overcast 4300 ft
2019/11/17 18:54 KMGJ 171854Z AUTO 02010KT 10SM OVC043 03/M07 A3026 RMK AO2 SLP253 T00281072
 
KBLM - Belmar/Farmdale, New Jersey, USA
Distance from station: S 47mi, 76km
Updated: 11/17/2019 1:56pm
Overcast
Overcast
 Wind from NNE
Wind: NNE 15 mph , 24 km/h, Gust: 23 mph , 37 km/h
Temperature: 41°F , 5°C
Wind Chill: 33°F , 1°C
Dew Point: 34°F , 1°C
Humidity: 76%
Barometer: 30.18 inHg , 1022 hPa
Clouds: Overcast
Visibility: 10 miles , 16 km
Cloud details: Overcast 1800 ft
2019/11/17 18:56 KBLM 171856Z AUTO 03013G20KT 10SM OVC018 05/01 A3018 RMK AO2 SLP222 T00500011
KDXR - Danbury, Connecticut, USA
Distance from station: NE 47mi, 76km
Updated: 11/17/2019 1:53pm
Overcast
Overcast
 Wind from ENE
Wind: ENE 10 mph , 17 km/h
Temperature: 37°F , 3°C
Wind Chill: 30°F , -1°C
Dew Point: 23°F , -5°C
Humidity: 56%
Barometer: 30.27 inHg , 1025.1 hPa
Clouds: Overcast
Visibility: 10 miles , 16 km
Cloud details: Mostly cloudy 3200 ft
Overcast 4300 ft
2019/11/17 18:53 KDXR 171853Z 07009KT 10SM BKN032 OVC043 03/M05 A3027 RMK AO2 SLP255 T00281050
 
KISP - Islip, New York, USA
Distance from station: E 52mi, 83km
Updated: 11/17/2019 1:56pm
Light rain, Overcast
Light rain, Overcast
 Wind from NE
Wind: NE 21 mph , 33 km/h, Gust: 28 mph , 44 km/h
Temperature: 43°F , 6°C
Wind Chill: 34°F , 1°C
Dew Point: 36°F , 2°C
Humidity: 76%
Barometer: 30.21 inHg , 1023 hPa
Summary: Light rain
Clouds: Overcast
Visibility: 10 miles , 16 km
Cloud details: Few Clouds 800 ft
Mostly cloudy 1800 ft
Mostly cloudy 2900 ft
Overcast 20000 ft
2019/11/17 18:56 KISP 171856Z 05018G24KT 10SM -RA FEW008 BKN018 BKN029 OVC200 06/02 A3021 RMK AO2 RAB20 SLP230 P0000 T00610022
KBDR - Bridgeport, Connecticut, USA
Distance from station: ENE 54mi, 87km
Updated: 11/17/2019 1:52pm
Overcast
Overcast
 Wind from NNE
Wind: NNE 15 mph , 24 km/h, Gust: 29 mph , 46 km/h
Temperature: 41°F , 5°C
Wind Chill: 33°F , 1°C
Dew Point: 25°F , -4°C
Humidity: 53%
Barometer: 30.26 inHg , 1024.7 hPa
Clouds: Overcast
Visibility: 10 miles , 16 km
Cloud details: Partly cloudy 2900 ft
Overcast 4800 ft
2019/11/17 18:52 KBDR 171852Z 02013G25KT 10SM SCT029 OVC048 05/M04 A3026 RMK AO2 SLP247 T00501039
 
KTTN - Trenton, New Jersey, USA
Distance from station: SW 55mi, 88km
Updated: 11/17/2019 1:53pm
Overcast
Overcast
 Wind from ENE
Wind: ENE 15 mph , 24 km/h, Gust: 24 mph , 39 km/h
Temperature: 43°F , 6°C
Wind Chill: 36°F , 2°C
Dew Point: 30°F , -1°C
Humidity: 61%
Barometer: 30.19 inHg , 1022.4 hPa
Clouds: Overcast
Visibility: 10 miles , 16 km
Cloud details: Overcast 2600 ft
2019/11/17 18:53 KTTN 171853Z 06013G21KT 10SM OVC026 06/M01 A3019 RMK AO2 SLP218 T00561011
KPOU - Poughkeepsie, New York, USA
Distance from station: N 55mi, 89km
Updated: 11/17/2019 1:53pm
Overcast
Overcast
 Wind from N
Wind: N 8 mph , 13 km/h
Temperature: 39°F , 4°C
Wind Chill: 33°F , 1°C
Dew Point: 23°F , -5°C
Humidity: 52%
Barometer: 30.28 inHg , 1025.4 hPa
Clouds: Overcast
Visibility: 10 miles , 16 km
Cloud details: Mostly cloudy 3500 ft
Overcast 4400 ft
2019/11/17 18:53 KPOU 171853Z 01007KT 10SM BKN035 OVC044 04/M05 A3028 RMK AO2 SLP253 T00391050
 
KNEL - Lakehurst Nas, New Jersey, USA
Distance from station: SSW 59mi, 95km
Updated: 11/17/2019 2:00pm
Overcast
Overcast
 Wind from NE
Wind: NE 14 mph , 22 km/h, Gust: 20 mph , 31 km/h
Temperature: 43°F , 6°C
Wind Chill: 36°F , 2°C
Dew Point: 36°F , 2°C
Humidity: 76%
Barometer: 30.16 inHg , 1021.3 hPa
Clouds: Overcast
Visibility: 10 miles , 16 km
Cloud details: Overcast 1900 ft
2019/11/17 19:00 KNEL 171900Z AUTO 04012G17KT 10SM OVC019 06/02 A3016 RMK AO2 SLP211 T00560022 $
KWRI - Wrightst/Mcguire, New Jersey, USA
Distance from station: SSW 63mi, 102km
Updated: 11/17/2019 1:56pm
Overcast
Overcast
 Wind from NNE
Wind: NNE 14 mph , 22 km/h, Gust: 22 mph , 35 km/h
Temperature: 43°F , 6°C
Wind Chill: 36°F , 2°C
Dew Point: 34°F , 1°C
Humidity: 71%
Barometer: 30.17 inHg , 1021.7 hPa
Clouds: Overcast
Visibility: 10 miles , 16 km
Cloud details: Overcast 1900 ft
2019/11/17 18:56 KWRI 171856Z 03012G19KT 10SM OVC019 06/01 A3017 RMK AO2A SLP217 T00560009
 
KHWV - Shirley, New York, USA
Distance from station: E 64mi, 103km
Updated: 11/17/2019 1:56pm
Light rain, Overcast
Light rain, Overcast
 Wind from NNE
Wind: NNE 10 mph , 17 km/h, Gust: 20 mph , 31 km/h
Temperature: 41°F , 5°C
Wind Chill: 35°F , 2°C
Dew Point: 34°F , 1°C
Humidity: 76%
Barometer: 30.22 inHg , 1023.4 hPa
Summary: Light rain
Clouds: Overcast
Visibility: 10 miles , 16 km
Cloud details: Few Clouds 2000 ft
Partly cloudy 2600 ft
Overcast 4000 ft
2019/11/17 18:56 KHWV 171856Z AUTO 02009G17KT 350V060 10SM -RA FEW020 SCT026 OVC040 05/01 A3022 RMK AO2 SLP234 P0000 T00500006
KMJX - Toms River, New Jersey, USA
Distance from station: S 64mi, 104km
Updated: 11/17/2019 2:30pm
Overcast
Overcast
 Wind from NNE
Wind: NNE 17 mph , 28 km/h, Gust: 25 mph , 41 km/h
Temperature: 41°F , 5°C
Wind Chill: 33°F , 1°C
Barometer: 30.16 inHg , 1021.3 hPa
Clouds: Overcast
Visibility: 7 miles , 11 km
Cloud details: Overcast 1500 ft
2019/11/17 19:30 KMJX 171930Z AUTO 03015G22KT 7SM OVC015 05/ A3016 RMK AO2
 
KDYL - Doylestown, Pennsylvania, USA
Distance from station: SW 65mi, 104km
Updated: 11/17/2019 2:11pm
Overcast
Overcast
 Wind from NE
Wind: NE 12 mph , 19 km/h, Gust: 23 mph , 37 km/h
Temperature: 43°F , 6°C
Wind Chill: 37°F , 3°C
Dew Point: 27°F , -3°C
Humidity: 53%
Barometer: 30.17 inHg , 1021.7 hPa
Clouds: Overcast
Visibility: 10 miles , 16 km
Cloud details: Mostly cloudy 2600 ft
Overcast 4000 ft
2019/11/17 19:11 KDYL 171911Z AUTO 04010G20KT 10SM BKN026 OVC040 06/M03 A3017 RMK AO2 T00611028
KOXC - Oxford/Waterbury, Connecticut, USA
Distance from station: NE 65mi, 105km
Updated: 11/17/2019 1:51pm
Overcast
Overcast
 Wind from ENE
Wind: ENE 14 mph , 22 km/h, Gust: 20 mph , 31 km/h
Temperature: 34°F , 1°C
Wind Chill: 25°F , -4°C
Dew Point: 23°F , -5°C
Humidity: 65%
Barometer: 30.26 inHg , 1024.7 hPa
Clouds: Overcast
Visibility: 10 miles , 16 km
Cloud details: Overcast 3800 ft
2019/11/17 18:51 KOXC 171851Z 06012G17KT 10SM OVC038 01/M05 A3026 RMK AO2 SLP268 T00111050
 
KMSV - Monticello, New York, USA
Distance from station: NNW 69mi, 111km
Updated: 11/17/2019 1:56pm
Overcast
Overcast
 Wind from E
Wind: E 10 mph , 17 km/h
Temperature: 32°F , 0°C
Wind Chill: 24°F , -4°C
Dew Point: 21°F , -6°C
Humidity: 64%
Barometer: 30.23 inHg , 1023.7 hPa
Clouds: Overcast
Visibility: 10 miles , 16 km
Cloud details: Overcast 2300 ft
2019/11/17 18:56 KMSV 171856Z AUTO 08009KT 10SM OVC023 00/M06 A3023 RMK AO2 SLP258 T00001056 FZRANO
KHVN - New Haven/Tweed, Connecticut, USA
Distance from station: ENE 70mi, 112km
Updated: 11/17/2019 1:53pm
Overcast
Overcast
 Wind from N
Wind: N 14 mph , 22 km/h
Temperature: 41°F , 5°C
Wind Chill: 33°F , 1°C
Dew Point: 21°F , -6°C
Humidity: 45%
Barometer: 30.27 inHg , 1025.1 hPa
Clouds: Overcast
Visibility: 10 miles , 16 km
Cloud details: Partly cloudy 3000 ft
Mostly cloudy 3900 ft
Overcast 4600 ft
2019/11/17 18:53 KHVN 171853Z 01012KT 10SM SCT030 BKN039 OVC046 05/M06 A3027 RMK AO2 SLP248 T00501056
 
KMPO - Mt. Pocono, Pennsylvania, USA
Distance from station: WNW 70mi, 113km
Updated: 11/17/2019 1:53pm
Overcast
Overcast
 Wind from ENE
Wind: ENE 7 mph , 11 km/h
Temperature: 34°F , 1°C
Wind Chill: 28°F , -2°C
Dew Point: 25°F , -4°C
Humidity: 70%
Barometer: 30.16 inHg , 1021.3 hPa
Clouds: Overcast
Visibility: 9 miles , 14 km
Cloud details: Few Clouds 1700 ft
Overcast 2700 ft
2019/11/17 18:53 KMPO 171853Z AUTO 06006KT 9SM FEW017 OVC027 01/M04 A3016 RMK AO2 SLP238 T00061044
KPNE - Philadelphia/Ne, Pennsylvania, USA
Distance from station: SW 72mi, 116km
Updated: 11/17/2019 1:54pm
Overcast
Overcast
 Wind from NE
Wind: NE 14 mph , 22 km/h
Temperature: 45°F , 7°C
Wind Chill: 39°F , 4°C
Dew Point: 28°F , -2°C
Humidity: 53%
Barometer: 30.20 inHg , 1022.7 hPa
Clouds: Overcast
Visibility: 10 miles , 16 km
Cloud details: Overcast 2600 ft
2019/11/17 18:54 KPNE 171854Z 05012KT 10SM OVC026 07/M02 A3020 RMK AO2 SLP227 T00721017
 
KABE - Allentown, Pennsylvania, USA
Distance from station: W 73mi, 117km
Updated: 11/17/2019 2:27pm
Overcast
Overcast
 Wind from NE
Wind: NE 15 mph , 24 km/h
Temperature: 43°F , 6°C
Wind Chill: 36°F , 2°C
Dew Point: 23°F , -5°C
Humidity: 46%
Barometer: 30.19 inHg , 1022.4 hPa
Clouds: Overcast
Visibility: 10 miles , 16 km
Cloud details: Partly cloudy 2900 ft
Overcast 3900 ft
2019/11/17 19:27 KABE 171927Z 04013KT 10SM SCT029 OVC039 06/M05 A3019 RMK AO2 T00611050
KUKT - Quakertown Arp, Pennsylvania, USA
Distance from station: WSW 74mi, 119km
Updated: 11/17/2019 2:40pm
Overcast
Overcast
 Wind from ENE
Wind: ENE 10 mph , 17 km/h
Temperature: 41°F , 5°C
Wind Chill: 35°F , 2°C
Dew Point: 28°F , -2°C
Humidity: 61%
Barometer: 30.17 inHg , 1021.7 hPa
Clouds: Overcast
Visibility: 10 miles , 16 km
Cloud details: Overcast 2800 ft
2019/11/17 19:40 KUKT 171940Z AUTO 07009KT 10SM OVC028 05/M02 A3017 RMK A01
 
KVAY - Mount Holly, New Jersey, USA
Distance from station: SSW 75mi, 120km
Updated: 11/17/2019 1:54pm
Overcast
Overcast
 Wind from NE
Wind: NE 9 mph , 15 km/h, Gust: 18 mph , 30 km/h
Temperature: 43°F , 6°C
Wind Chill: 38°F , 3°C
Dew Point: 32°F , 0°C
Humidity: 66%
Barometer: 30.18 inHg , 1022 hPa
Clouds: Overcast
Visibility: 10 miles , 16 km
Cloud details: Overcast 2300 ft
2019/11/17 18:54 KVAY 171854Z AUTO 04008G16KT 10SM OVC023 06/00 A3018 RMK AO2 SLP220 T00610000
KXLL - Allentown Queen, Pennsylvania, USA
Distance from station: WSW 76mi, 122km
Updated: 11/17/2019 2:35pm
Overcast
Overcast
 Wind from NE
Wind: NE 14 mph , 22 km/h, Gust: 17 mph , 28 km/h
Temperature: 41°F , 5°C
Wind Chill: 33°F , 1°C
Dew Point: 27°F , -3°C
Humidity: 57%
Barometer: 30.19 inHg , 1022.4 hPa
Clouds: Overcast
Visibility: 10 miles , 16 km
Cloud details: Mostly cloudy 3000 ft
Overcast 3900 ft
2019/11/17 19:35 KXLL 171935Z AUTO 04012G15KT 10SM BKN030 OVC039 05/M03 A3019 RMK AO2
 
KFOK - Westhampton Beac, New York, USA
Distance from station: E 77mi, 124km
Updated: 11/17/2019 1:53pm
Light rain, Overcast
Light rain, Overcast
 Wind from NNE
Wind: NNE 14 mph , 22 km/h
Temperature: 39°F , 4°C
Wind Chill: 31°F , -1°C
Dew Point: 34°F , 1°C
Humidity: 81%
Barometer: 30.22 inHg , 1023.4 hPa
Summary: Light rain
Clouds: Overcast
Visibility: 10 miles , 16 km
Cloud details: Partly cloudy 2700 ft
Mostly cloudy 3400 ft
Overcast 4400 ft
2019/11/17 18:53 KFOK 171853Z 03012KT 10SM -RA SCT027 BKN034 OVC044 04/01 A3022 RMK AO2 SLP234 P0001 T00440011
KLOM - Philly Wings F, Pennsylvania, USA
Distance from station: SW 79mi, 128km
Updated: 11/17/2019 2:35pm
Overcast
Overcast
 Wind from NE
Wind: NE 7 mph , 11 km/h, Gust: 20 mph , 31 km/h
Temperature: 43°F , 6°C
Wind Chill: 39°F , 4°C
Dew Point: 30°F , -1°C
Humidity: 61%
Barometer: 30.17 inHg , 1021.7 hPa
Clouds: Overcast
Visibility: 10 miles , 16 km
Cloud details: Mostly cloudy 2800 ft
Mostly cloudy 3400 ft
Overcast 4000 ft
2019/11/17 19:35 KLOM 171935Z AUTO 05006G17KT 10SM BKN028 BKN034 OVC040 06/M01 A3017 RMK AO2 T00571011
 
KMMK - Meriden, Connecticut, USA
Distance from station: NE 80mi, 128km
Updated: 11/17/2019 1:53pm
Overcast
Overcast
 Wind from N
Wind: N 12 mph , 19 km/h, Gust: 20 mph , 31 km/h
Temperature: 34°F , 1°C
Wind Chill: 25°F , -4°C
Dew Point: 18°F , -8°C
Humidity: 51%
Barometer: 30.30 inHg , 1026.1 hPa
Clouds: Overcast
Visibility: 10 miles , 16 km
Cloud details: Overcast 4200 ft
2019/11/17 18:53 KMMK 171853Z AUTO 01010G17KT 10SM OVC042 01/M08 A3030 RMK AO2 SLP261 T00111078
KPTW - Pottstown, Pennsylvania, USA
Distance from station: WSW 88mi, 141km
Updated: 11/17/2019 1:54pm
Overcast
Overcast
 Wind from NE
Wind: NE 12 mph , 19 km/h
Temperature: 41°F , 5°C
Wind Chill: 34°F , 1°C
Dew Point: 27°F , -3°C
Humidity: 57%
Barometer: 30.19 inHg , 1022.4 hPa
Clouds: Overcast
Visibility: 10 miles , 16 km
Cloud details: Overcast 2900 ft
2019/11/17 18:54 KPTW 171854Z AUTO 05010KT 10SM OVC029 05/M03 A3019 RMK AO2 SLP225 T00501028
 
KSNC - Chester, Connecticut, USA
Distance from station: ENE 90mi, 146km
Updated: 11/17/2019 2:35pm
Overcast
Overcast
 Wind from NNE
Wind: NNE 12 mph , 19 km/h
Temperature: 39°F , 4°C
Wind Chill: 32°F , 0°C
Dew Point: 25°F , -4°C
Humidity: 56%
Barometer: 30.24 inHg , 1024 hPa
Clouds: Overcast
Visibility: 10 miles , 16 km
Cloud details: Mostly cloudy 3200 ft
Overcast 3800 ft
2019/11/17 19:35 KSNC 171935Z AUTO 02010KT 340V040 10SM BKN032 OVC038 04/M04 A3024 RMK AO2
KPHL - Philadelphia, Pennsylvania, USA
Distance from station: SW 91mi, 146km
Updated: 11/17/2019 1:54pm
Overcast
Overcast
 Wind from NE
Wind: NE 20 mph , 31 km/h
Temperature: 45°F , 7°C
Wind Chill: 37°F , 3°C
Dew Point: 28°F , -2°C
Humidity: 53%
Barometer: 30.17 inHg , 1021.7 hPa
Clouds: Overcast
Visibility: 10 miles , 16 km
Cloud details: Overcast 2700 ft
2019/11/17 18:54 KPHL 171854Z 04017KT 10SM OVC027 07/M02 A3017 RMK AO2 SLP217 T00671017 $
 
KAVP - Avoca/Wilkes B., Pennsylvania, USA
Distance from station: WNW 91mi, 147km
Updated: 11/17/2019 1:54pm
Overcast
Overcast
 Wind from E
Wind: E 7 mph , 11 km/h
Temperature: 39°F , 4°C
Wind Chill: 34°F , 1°C
Dew Point: 23°F , -5°C
Humidity: 52%
Barometer: 30.20 inHg , 1022.7 hPa
Clouds: Overcast
Visibility: 10 miles , 16 km
Cloud details: Overcast 3800 ft
2019/11/17 18:54 KAVP 171854Z 10006KT 10SM OVC038 04/M05 A3020 RMK AO2 SLP233 T00441050 $
KHFD - Hartford/Brainar, Connecticut, USA
Distance from station: NE 96mi, 155km
Updated: 11/17/2019 1:53pm
Overcast
Overcast
 Wind from N
Wind: N 10 mph , 17 km/h
Temperature: 34°F , 1°C
Wind Chill: 26°F , -3°C
Dew Point: 18°F , -8°C
Humidity: 51%
Barometer: 30.33 inHg , 1027.1 hPa
Clouds: Overcast
Visibility: 10 miles , 16 km
Cloud details: Overcast 3600 ft
2019/11/17 18:53 KHFD 171853Z 01009KT 10SM OVC036 01/M08 A3033 RMK AO2 SLP269 T00111078
 
KHTO - East Hampton, New York, USA
Distance from station: E 96mi, 155km
Updated: 11/17/2019 2:35pm
Overcast
Overcast
 Wind from NE
Wind: NE 14 mph , 22 km/h, Gust: 24 mph , 39 km/h
Temperature: 43°F , 6°C
Wind Chill: 36°F , 2°C
Dew Point: 34°F , 1°C
Humidity: 71%
Barometer: 30.20 inHg , 1022.7 hPa
Clouds: Overcast
Visibility: 10 miles , 16 km
Cloud details: Partly cloudy 2300 ft
Mostly cloudy 2900 ft
Overcast 3400 ft
2019/11/17 19:35 KHTO 171935Z AUTO 04012G21KT 10SM SCT023 BKN029 OVC034 06/01 A3020 RMK AO2 T00550007
KACY - Atlantic City, New Jersey, USA
Distance from station: SSW 99mi, 160km
Updated: 11/17/2019 2:15pm
Mist, Overcast
Mist, Overcast
 Wind from NNE
Wind: NNE 16 mph , 26 km/h, Gust: 24 mph , 39 km/h
Temperature: 43°F , 6°C
Wind Chill: 35°F , 2°C
Dew Point: 39°F , 4°C
Humidity: 87%
Barometer: 30.12 inHg , 1020 hPa
Summary: Mist
Clouds: Overcast
Visibility: 1 1/2 miles , 2.4 km
Cloud details: Overcast 600 ft
2019/11/17 19:15 KACY 171915Z 02014G21KT 1 1/2SM BR OVC006 06/04 A3012 RMK AO2 RAE1856 P0000 T00560039